sensor_id;sensor_type;location;lat;lon;timestamp;P1;durP1;ratioP1;P2;durP2;ratioP2
15573;SDS011;7888;46.748;8.102;2023-08-21T00:01:21;4.18;;;3.78;;
15573;SDS011;7888;46.748;8.102;2023-08-21T00:03:50;4.20;;;3.72;;
15573;SDS011;7888;46.748;8.102;2023-08-21T00:06:15;5.93;;;3.90;;
15573;SDS011;7888;46.748;8.102;2023-08-21T00:08:41;4.75;;;3.60;;
15573;SDS011;7888;46.748;8.102;2023-08-21T00:11:07;5.22;;;3.95;;
15573;SDS011;7888;46.748;8.102;2023-08-21T00:13:33;4.63;;;3.95;;
15573;SDS011;7888;46.748;8.102;2023-08-21T00:15:58;5.15;;;3.75;;
15573;SDS011;7888;46.748;8.102;2023-08-21T00:18:24;4.05;;;3.75;;
15573;SDS011;7888;46.748;8.102;2023-08-21T00:20:50;6.05;;;3.65;;
15573;SDS011;7888;46.748;8.102;2023-08-21T00:23:16;4.88;;;3.97;;
15573;SDS011;7888;46.748;8.102;2023-08-21T00:25:45;4.07;;;3.67;;
15573;SDS011;7888;46.748;8.102;2023-08-21T00:28:12;4.15;;;3.75;;
15573;SDS011;7888;46.748;8.102;2023-08-21T00:30:38;5.40;;;3.88;;
15573;SDS011;7888;46.748;8.102;2023-08-21T00:33:04;4.68;;;4.00;;
15573;SDS011;7888;46.748;8.102;2023-08-21T00:35:30;4.32;;;3.78;;
15573;SDS011;7888;46.748;8.102;2023-08-21T00:37:56;5.28;;;4.00;;
15573;SDS011;7888;46.748;8.102;2023-08-21T00:40:22;4.80;;;3.85;;
15573;SDS011;7888;46.748;8.102;2023-08-21T00:42:50;4.75;;;3.92;;
15573;SDS011;7888;46.748;8.102;2023-08-21T00:45:16;4.00;;;3.47;;
15573;SDS011;7888;46.748;8.102;2023-08-21T00:47:42;5.07;;;4.05;;
15573;SDS011;7888;46.748;8.102;2023-08-21T00:50:09;4.25;;;3.80;;
15573;SDS011;7888;46.748;8.102;2023-08-21T00:52:36;5.68;;;3.92;;
15573;SDS011;7888;46.748;8.102;2023-08-21T00:55:05;5.80;;;3.95;;
15573;SDS011;7888;46.748;8.102;2023-08-21T00:57:33;5.50;;;3.65;;
15573;SDS011;7888;46.748;8.102;2023-08-21T01:00:00;3.67;;;3.38;;
15573;SDS011;7888;46.748;8.102;2023-08-21T01:02:26;4.75;;;3.58;;
15573;SDS011;7888;46.748;8.102;2023-08-21T01:04:54;4.72;;;3.63;;
15573;SDS011;7888;46.748;8.102;2023-08-21T01:07:20;5.38;;;3.47;;
15573;SDS011;7888;46.748;8.102;2023-08-21T01:09:50;5.60;;;3.78;;
15573;SDS011;7888;46.748;8.102;2023-08-21T01:12:44;4.35;;;3.95;;
15573;SDS011;7888;46.748;8.102;2023-08-21T01:15:25;4.57;;;3.53;;
15573;SDS011;7888;46.748;8.102;2023-08-21T01:17:51;4.65;;;4.25;;
15573;SDS011;7888;46.748;8.102;2023-08-21T01:20:18;5.05;;;3.67;;
15573;SDS011;7888;46.748;8.102;2023-08-21T01:22:44;4.40;;;4.00;;
15573;SDS011;7888;46.748;8.102;2023-08-21T01:25:13;4.85;;;3.78;;
15573;SDS011;7888;46.748;8.102;2023-08-21T01:27:42;5.55;;;4.00;;
15573;SDS011;7888;46.748;8.102;2023-08-21T01:30:15;4.18;;;3.47;;
15573;SDS011;7888;46.748;8.102;2023-08-21T01:35:12;5.28;;;4.05;;
15573;SDS011;7888;46.748;8.102;2023-08-21T01:37:39;4.43;;;3.88;;
15573;SDS011;7888;46.748;8.102;2023-08-21T01:40:06;5.68;;;4.32;;
15573;SDS011;7888;46.748;8.102;2023-08-21T01:42:32;6.45;;;4.32;;
15573;SDS011;7888;46.748;8.102;2023-08-21T01:44:58;5.35;;;3.80;;
15573;SDS011;7888;46.748;8.102;2023-08-21T01:47:24;4.72;;;4.20;;
15573;SDS011;7888;46.748;8.102;2023-08-21T01:49:49;5.00;;;3.92;;
15573;SDS011;7888;46.748;8.102;2023-08-21T01:52:17;4.30;;;3.90;;
15573;SDS011;7888;46.748;8.102;2023-08-21T01:54:44;4.22;;;3.83;;
15573;SDS011;7888;46.748;8.102;2023-08-21T01:57:10;4.20;;;3.78;;
15573;SDS011;7888;46.748;8.102;2023-08-21T01:59:35;4.65;;;3.85;;
15573;SDS011;7888;46.748;8.102;2023-08-21T02:02:01;4.05;;;3.75;;
15573;SDS011;7888;46.748;8.102;2023-08-21T02:04:27;3.80;;;3.50;;
15573;SDS011;7888;46.748;8.102;2023-08-21T02:06:53;5.50;;;4.00;;
15573;SDS011;7888;46.748;8.102;2023-08-21T02:09:18;5.80;;;4.00;;
15573;SDS011;7888;46.748;8.102;2023-08-21T02:11:44;4.00;;;3.63;;
15573;SDS011;7888;46.748;8.102;2023-08-21T02:14:10;4.43;;;3.67;;
15573;SDS011;7888;46.748;8.102;2023-08-21T02:16:35;6.40;;;3.88;;
15573;SDS011;7888;46.748;8.102;2023-08-21T02:19:01;4.57;;;4.07;;
15573;SDS011;7888;46.748;8.102;2023-08-21T02:21:27;3.97;;;3.58;;
15573;SDS011;7888;46.748;8.102;2023-08-21T02:23:55;4.40;;;4.00;;
15573;SDS011;7888;46.748;8.102;2023-08-21T02:26:21;4.45;;;4.05;;
15573;SDS011;7888;46.748;8.102;2023-08-21T02:28:47;4.47;;;3.88;;
15573;SDS011;7888;46.748;8.102;2023-08-21T02:31:13;5.25;;;3.55;;
15573;SDS011;7888;46.748;8.102;2023-08-21T02:33:38;5.75;;;3.80;;
15573;SDS011;7888;46.748;8.102;2023-08-21T02:36:04;5.18;;;4.15;;
15573;SDS011;7888;46.748;8.102;2023-08-21T02:38:32;4.72;;;4.07;;
15573;SDS011;7888;46.748;8.102;2023-08-21T02:40:57;5.68;;;4.28;;
15573;SDS011;7888;46.748;8.102;2023-08-21T02:43:23;5.07;;;3.83;;
15573;SDS011;7888;46.748;8.102;2023-08-21T02:45:49;5.22;;;4.07;;
15573;SDS011;7888;46.748;8.102;2023-08-21T02:48:14;4.85;;;4.30;;
15573;SDS011;7888;46.748;8.102;2023-08-21T02:50:40;4.00;;;3.60;;
15573;SDS011;7888;46.748;8.102;2023-08-21T02:53:07;4.40;;;4.00;;
15573;SDS011;7888;46.748;8.102;2023-08-21T02:55:32;4.55;;;3.65;;
15573;SDS011;7888;46.748;8.102;2023-08-21T02:57:58;3.78;;;3.47;;
15573;SDS011;7888;46.748;8.102;2023-08-21T03:00:24;4.95;;;4.00;;
15573;SDS011;7888;46.748;8.102;2023-08-21T03:02:50;5.15;;;4.15;;
15573;SDS011;7888;46.748;8.102;2023-08-21T03:05:16;5.85;;;3.85;;
15573;SDS011;7888;46.748;8.102;2023-08-21T03:07:42;5.13;;;3.83;;
15573;SDS011;7888;46.748;8.102;2023-08-21T03:10:07;5.30;;;3.95;;
15573;SDS011;7888;46.748;8.102;2023-08-21T03:12:34;8.27;;;4.30;;
15573;SDS011;7888;46.748;8.102;2023-08-21T03:15:00;4.93;;;3.63;;
15573;SDS011;7888;46.748;8.102;2023-08-21T03:17:25;4.30;;;3.90;;
15573;SDS011;7888;46.748;8.102;2023-08-21T03:19:51;4.68;;;4.28;;
15573;SDS011;7888;46.748;8.102;2023-08-21T03:22:17;4.45;;;4.05;;
15573;SDS011;7888;46.748;8.102;2023-08-21T03:24:42;3.88;;;3.58;;
15573;SDS011;7888;46.748;8.102;2023-08-21T03:27:08;5.97;;;3.90;;
15573;SDS011;7888;46.748;8.102;2023-08-21T03:29:34;4.63;;;4.15;;
15573;SDS011;7888;46.748;8.102;2023-08-21T03:32:00;4.68;;;3.90;;
15573;SDS011;7888;46.748;8.102;2023-08-21T03:34:25;4.45;;;3.95;;
15573;SDS011;7888;46.748;8.102;2023-08-21T03:36:51;4.18;;;3.80;;
15573;SDS011;7888;46.748;8.102;2023-08-21T03:39:17;4.03;;;3.72;;
15573;SDS011;7888;46.748;8.102;2023-08-21T03:41:43;6.32;;;4.47;;
15573;SDS011;7888;46.748;8.102;2023-08-21T03:44:08;4.28;;;3.90;;
15573;SDS011;7888;46.748;8.102;2023-08-21T03:46:34;5.55;;;3.65;;
15573;SDS011;7888;46.748;8.102;2023-08-21T03:49:00;5.20;;;3.90;;
15573;SDS011;7888;46.748;8.102;2023-08-21T03:51:26;4.45;;;4.05;;
15573;SDS011;7888;46.748;8.102;2023-08-21T03:53:51;5.53;;;3.58;;
15573;SDS011;7888;46.748;8.102;2023-08-21T03:56:17;6.60;;;4.20;;
15573;SDS011;7888;46.748;8.102;2023-08-21T03:58:44;5.18;;;3.70;;
15573;SDS011;7888;46.748;8.102;2023-08-21T04:01:09;4.20;;;3.58;;
15573;SDS011;7888;46.748;8.102;2023-08-21T04:03:35;4.15;;;3.72;;
15573;SDS011;7888;46.748;8.102;2023-08-21T04:06:01;4.72;;;4.32;;
15573;SDS011;7888;46.748;8.102;2023-08-21T04:08:27;4.65;;;4.20;;
15573;SDS011;7888;46.748;8.102;2023-08-21T04:10:53;4.57;;;4.18;;
15573;SDS011;7888;46.748;8.102;2023-08-21T04:13:19;5.25;;;4.03;;
15573;SDS011;7888;46.748;8.102;2023-08-21T04:15:45;6.00;;;4.05;;
15573;SDS011;7888;46.748;8.102;2023-08-21T04:18:11;4.60;;;4.10;;
15573;SDS011;7888;46.748;8.102;2023-08-21T04:20:37;4.55;;;3.63;;
15573;SDS011;7888;46.748;8.102;2023-08-21T04:23:03;6.43;;;4.25;;
15573;SDS011;7888;46.748;8.102;2023-08-21T04:25:29;6.45;;;3.95;;
15573;SDS011;7888;46.748;8.102;2023-08-21T04:27:54;4.22;;;3.78;;
15573;SDS011;7888;46.748;8.102;2023-08-21T04:30:20;4.35;;;3.95;;
15573;SDS011;7888;46.748;8.102;2023-08-21T04:32:46;4.43;;;3.58;;
15573;SDS011;7888;46.748;8.102;2023-08-21T04:35:13;4.93;;;3.83;;
15573;SDS011;7888;46.748;8.102;2023-08-21T04:37:42;4.15;;;3.75;;
15573;SDS011;7888;46.748;8.102;2023-08-21T04:40:11;5.47;;;4.10;;
15573;SDS011;7888;46.748;8.102;2023-08-21T04:42:37;5.70;;;4.15;;
15573;SDS011;7888;46.748;8.102;2023-08-21T04:45:03;6.30;;;4.90;;
15573;SDS011;7888;46.748;8.102;2023-08-21T04:47:30;7.22;;;4.35;;
15573;SDS011;7888;46.748;8.102;2023-08-21T04:49:57;4.40;;;3.92;;
15573;SDS011;7888;46.748;8.102;2023-08-21T04:52:23;4.88;;;4.47;;
15573;SDS011;7888;46.748;8.102;2023-08-21T04:54:50;5.13;;;4.30;;
15573;SDS011;7888;46.748;8.102;2023-08-21T04:57:18;4.22;;;3.83;;
15573;SDS011;7888;46.748;8.102;2023-08-21T04:59:44;7.05;;;3.95;;
15573;SDS011;7888;46.748;8.102;2023-08-21T05:02:10;6.47;;;4.40;;
15573;SDS011;7888;46.748;8.102;2023-08-21T05:04:36;6.25;;;4.40;;
15573;SDS011;7888;46.748;8.102;2023-08-21T05:07:03;4.38;;;3.58;;
15573;SDS011;7888;46.748;8.102;2023-08-21T05:09:30;6.65;;;4.30;;
15573;SDS011;7888;46.748;8.102;2023-08-21T05:11:56;6.50;;;4.28;;
15573;SDS011;7888;46.748;8.102;2023-08-21T05:14:22;4.65;;;4.05;;
15573;SDS011;7888;46.748;8.102;2023-08-21T05:16:48;4.30;;;3.90;;
15573;SDS011;7888;46.748;8.102;2023-08-21T05:19:15;5.82;;;4.07;;
15573;SDS011;7888;46.748;8.102;2023-08-21T05:21:42;5.82;;;3.65;;
15573;SDS011;7888;46.748;8.102;2023-08-21T05:24:08;4.55;;;3.83;;
15573;SDS011;7888;46.748;8.102;2023-08-21T05:26:38;5.35;;;4.30;;
15573;SDS011;7888;46.748;8.102;2023-08-21T05:29:04;5.18;;;3.90;;
15573;SDS011;7888;46.748;8.102;2023-08-21T05:31:30;5.60;;;3.85;;
15573;SDS011;7888;46.748;8.102;2023-08-21T05:33:56;4.35;;;3.95;;
15573;SDS011;7888;46.748;8.102;2023-08-21T05:36:21;4.35;;;3.85;;
15573;SDS011;7888;46.748;8.102;2023-08-21T05:38:47;4.90;;;4.40;;
15573;SDS011;7888;46.748;8.102;2023-08-21T05:41:16;4.35;;;3.95;;
15573;SDS011;7888;46.748;8.102;2023-08-21T05:43:42;4.28;;;3.85;;
15573;SDS011;7888;46.748;8.102;2023-08-21T05:46:08;4.63;;;4.13;;
15573;SDS011;7888;46.748;8.102;2023-08-21T05:48:34;4.50;;;4.03;;
15573;SDS011;7888;46.748;8.102;2023-08-21T05:51:00;5.78;;;4.38;;
15573;SDS011;7888;46.748;8.102;2023-08-21T05:53:25;4.80;;;4.35;;
15573;SDS011;7888;46.748;8.102;2023-08-21T05:55:52;4.13;;;3.70;;
15573;SDS011;7888;46.748;8.102;2023-08-21T05:58:19;7.65;;;4.43;;
15573;SDS011;7888;46.748;8.102;2023-08-21T06:00:46;11.13;;;5.07;;
15573;SDS011;7888;46.748;8.102;2023-08-21T06:03:12;7.25;;;4.40;;
15573;SDS011;7888;46.748;8.102;2023-08-21T06:05:38;5.03;;;4.10;;
15573;SDS011;7888;46.748;8.102;2023-08-21T06:08:04;4.28;;;3.88;;
15573;SDS011;7888;46.748;8.102;2023-08-21T06:10:33;6.03;;;3.97;;
15573;SDS011;7888;46.748;8.102;2023-08-21T06:12:59;4.95;;;3.78;;
15573;SDS011;7888;46.748;8.102;2023-08-21T06:15:25;6.75;;;3.75;;
15573;SDS011;7888;46.748;8.102;2023-08-21T06:17:50;5.25;;;3.65;;
15573;SDS011;7888;46.748;8.102;2023-08-21T06:20:16;5.40;;;3.90;;
15573;SDS011;7888;46.748;8.102;2023-08-21T06:22:43;3.90;;;3.45;;
15573;SDS011;7888;46.748;8.102;2023-08-21T06:25:09;4.72;;;3.78;;
15573;SDS011;7888;46.748;8.102;2023-08-21T06:27:35;5.78;;;3.92;;
15573;SDS011;7888;46.748;8.102;2023-08-21T06:30:01;4.75;;;3.75;;
15573;SDS011;7888;46.748;8.102;2023-08-21T06:32:26;5.63;;;3.83;;
15573;SDS011;7888;46.748;8.102;2023-08-21T06:34:52;6.05;;;3.90;;
15573;SDS011;7888;46.748;8.102;2023-08-21T06:37:18;5.50;;;4.10;;
15573;SDS011;7888;46.748;8.102;2023-08-21T06:39:44;5.22;;;4.72;;
15573;SDS011;7888;46.748;8.102;2023-08-21T06:42:09;4.70;;;4.22;;
15573;SDS011;7888;46.748;8.102;2023-08-21T06:44:35;4.72;;;3.95;;
15573;SDS011;7888;46.748;8.102;2023-08-21T06:47:01;4.75;;;3.92;;
15573;SDS011;7888;46.748;8.102;2023-08-21T06:49:27;4.40;;;3.97;;
15573;SDS011;7888;46.748;8.102;2023-08-21T06:51:52;4.72;;;4.25;;
15573;SDS011;7888;46.748;8.102;2023-08-21T06:54:18;6.25;;;4.65;;
15573;SDS011;7888;46.748;8.102;2023-08-21T06:56:44;6.25;;;4.50;;
15573;SDS011;7888;46.748;8.102;2023-08-21T06:59:09;8.88;;;4.45;;
15573;SDS011;7888;46.748;8.102;2023-08-21T07:01:35;5.90;;;4.22;;
15573;SDS011;7888;46.748;8.102;2023-08-21T07:04:01;7.60;;;4.22;;
15573;SDS011;7888;46.748;8.102;2023-08-21T07:06:27;4.72;;;4.28;;
15573;SDS011;7888;46.748;8.102;2023-08-21T07:08:55;4.18;;;3.75;;
15573;SDS011;7888;46.748;8.102;2023-08-21T07:11:21;5.18;;;4.35;;
15573;SDS011;7888;46.748;8.102;2023-08-21T07:13:48;4.38;;;3.97;;
15573;SDS011;7888;46.748;8.102;2023-08-21T07:16:14;6.15;;;3.70;;
15573;SDS011;7888;46.748;8.102;2023-08-21T07:18:40;6.43;;;4.50;;
15573;SDS011;7888;46.748;8.102;2023-08-21T07:21:05;5.43;;;4.10;;
15573;SDS011;7888;46.748;8.102;2023-08-21T07:23:31;5.68;;;3.83;;
15573;SDS011;7888;46.748;8.102;2023-08-21T07:25:59;5.82;;;4.60;;
15573;SDS011;7888;46.748;8.102;2023-08-21T07:28:25;5.88;;;4.22;;
15573;SDS011;7888;46.748;8.102;2023-08-21T07:30:54;5.40;;;4.25;;
15573;SDS011;7888;46.748;8.102;2023-08-21T07:33:21;4.88;;;3.75;;
15573;SDS011;7888;46.748;8.102;2023-08-21T07:35:47;5.60;;;4.03;;
15573;SDS011;7888;46.748;8.102;2023-08-21T07:38:22;5.57;;;3.92;;
15573;SDS011;7888;46.748;8.102;2023-08-21T07:40:47;4.97;;;3.58;;
15573;SDS011;7888;46.748;8.102;2023-08-21T07:43:13;4.65;;;3.70;;
15573;SDS011;7888;46.748;8.102;2023-08-21T07:45:39;5.13;;;4.53;;
15573;SDS011;7888;46.748;8.102;2023-08-21T07:48:04;6.53;;;4.13;;
15573;SDS011;7888;46.748;8.102;2023-08-21T07:50:30;4.82;;;4.22;;
15573;SDS011;7888;46.748;8.102;2023-08-21T07:52:56;5.05;;;3.97;;
15573;SDS011;7888;46.748;8.102;2023-08-21T07:55:22;5.80;;;4.25;;
15573;SDS011;7888;46.748;8.102;2023-08-21T07:57:47;4.78;;;4.28;;
15573;SDS011;7888;46.748;8.102;2023-08-21T08:00:13;6.47;;;4.05;;
15573;SDS011;7888;46.748;8.102;2023-08-21T08:02:39;5.03;;;4.03;;
15573;SDS011;7888;46.748;8.102;2023-08-21T08:05:05;4.70;;;4.20;;
15573;SDS011;7888;46.748;8.102;2023-08-21T08:07:31;5.18;;;4.50;;
15573;SDS011;7888;46.748;8.102;2023-08-21T08:09:57;5.38;;;4.00;;
15573;SDS011;7888;46.748;8.102;2023-08-21T08:12:23;5.95;;;4.20;;
15573;SDS011;7888;46.748;8.102;2023-08-21T08:14:49;5.90;;;3.92;;
15573;SDS011;7888;46.748;8.102;2023-08-21T08:17:15;5.68;;;4.03;;
15573;SDS011;7888;46.748;8.102;2023-08-21T08:19:41;4.38;;;4.00;;
15573;SDS011;7888;46.748;8.102;2023-08-21T08:22:07;4.15;;;3.53;;
15573;SDS011;7888;46.748;8.102;2023-08-21T08:24:32;4.35;;;3.95;;
15573;SDS011;7888;46.748;8.102;2023-08-21T08:26:58;4.63;;;3.72;;
15573;SDS011;7888;46.748;8.102;2023-08-21T08:29:24;4.95;;;3.97;;
15573;SDS011;7888;46.748;8.102;2023-08-21T08:31:49;4.38;;;3.65;;
15573;SDS011;7888;46.748;8.102;2023-08-21T08:34:15;4.10;;;3.63;;
15573;SDS011;7888;46.748;8.102;2023-08-21T08:36:45;5.90;;;3.90;;
15573;SDS011;7888;46.748;8.102;2023-08-21T08:39:11;5.53;;;3.75;;
15573;SDS011;7888;46.748;8.102;2023-08-21T08:41:38;4.93;;;4.25;;
15573;SDS011;7888;46.748;8.102;2023-08-21T08:44:27;4.80;;;4.03;;
15573;SDS011;7888;46.748;8.102;2023-08-21T08:46:55;6.68;;;4.60;;
15573;SDS011;7888;46.748;8.102;2023-08-21T08:49:24;5.45;;;4.13;;
15573;SDS011;7888;46.748;8.102;2023-08-21T08:51:50;4.55;;;4.07;;
15573;SDS011;7888;46.748;8.102;2023-08-21T08:54:18;5.10;;;3.92;;
15573;SDS011;7888;46.748;8.102;2023-08-21T08:56:47;5.53;;;4.13;;
15573;SDS011;7888;46.748;8.102;2023-08-21T08:59:13;5.50;;;4.68;;
15573;SDS011;7888;46.748;8.102;2023-08-21T09:01:40;7.00;;;4.53;;
15573;SDS011;7888;46.748;8.102;2023-08-21T09:04:07;4.90;;;4.05;;
15573;SDS011;7888;46.748;8.102;2023-08-21T09:06:33;10.10;;;4.53;;
15573;SDS011;7888;46.748;8.102;2023-08-21T09:08:59;5.28;;;4.28;;
15573;SDS011;7888;46.748;8.102;2023-08-21T09:11:25;4.53;;;4.10;;
15573;SDS011;7888;46.748;8.102;2023-08-21T09:13:52;5.18;;;4.47;;
15573;SDS011;7888;46.748;8.102;2023-08-21T09:16:21;5.30;;;4.72;;
15573;SDS011;7888;46.748;8.102;2023-08-21T09:18:52;7.15;;;4.38;;
15573;SDS011;7888;46.748;8.102;2023-08-21T09:21:20;6.18;;;3.88;;
15573;SDS011;7888;46.748;8.102;2023-08-21T09:23:48;5.70;;;4.28;;
15573;SDS011;7888;46.748;8.102;2023-08-21T09:26:23;4.25;;;3.92;;
15573;SDS011;7888;46.748;8.102;2023-08-21T09:28:50;4.85;;;4.45;;
15573;SDS011;7888;46.748;8.102;2023-08-21T09:31:31;4.72;;;4.22;;
15573;SDS011;7888;46.748;8.102;2023-08-21T09:33:58;5.15;;;3.95;;
15573;SDS011;7888;46.748;8.102;2023-08-21T09:36:29;4.60;;;4.15;;
15573;SDS011;7888;46.748;8.102;2023-08-21T09:38:56;5.55;;;3.78;;
15573;SDS011;7888;46.748;8.102;2023-08-21T09:41:22;6.35;;;3.97;;
15573;SDS011;7888;46.748;8.102;2023-08-21T09:43:49;5.40;;;4.47;;
15573;SDS011;7888;46.748;8.102;2023-08-21T09:46:15;5.63;;;4.20;;
15573;SDS011;7888;46.748;8.102;2023-08-21T09:48:48;6.18;;;3.70;;
15573;SDS011;7888;46.748;8.102;2023-08-21T09:51:17;4.45;;;3.95;;
15573;SDS011;7888;46.748;8.102;2023-08-21T09:53:43;4.43;;;3.65;;
15573;SDS011;7888;46.748;8.102;2023-08-21T09:56:09;4.53;;;3.75;;
15573;SDS011;7888;46.748;8.102;2023-08-21T09:58:36;9.35;;;4.25;;
15573;SDS011;7888;46.748;8.102;2023-08-21T10:01:04;4.40;;;4.00;;
15573;SDS011;7888;46.748;8.102;2023-08-21T10:03:37;4.40;;;3.67;;
15573;SDS011;7888;46.748;8.102;2023-08-21T10:06:05;4.53;;;3.60;;
15573;SDS011;7888;46.748;8.102;2023-08-21T10:08:36;4.65;;;3.80;;
15573;SDS011;7888;46.748;8.102;2023-08-21T10:11:07;4.55;;;3.78;;
15573;SDS011;7888;46.748;8.102;2023-08-21T10:13:34;6.45;;;3.88;;
15573;SDS011;7888;46.748;8.102;2023-08-21T10:16:04;5.70;;;3.63;;
15573;SDS011;7888;46.748;8.102;2023-08-21T10:18:34;5.90;;;3.55;;
15573;SDS011;7888;46.748;8.102;2023-08-21T10:21:11;6.25;;;4.35;;
15573;SDS011;7888;46.748;8.102;2023-08-21T10:23:41;3.85;;;3.53;;
15573;SDS011;7888;46.748;8.102;2023-08-21T10:26:09;4.65;;;3.63;;
15573;SDS011;7888;46.748;8.102;2023-08-21T10:28:42;6.85;;;4.40;;
15573;SDS011;7888;46.748;8.102;2023-08-21T10:34:08;5.50;;;3.75;;
15573;SDS011;7888;46.748;8.102;2023-08-21T10:41:40;4.25;;;3.85;;
15573;SDS011;7888;46.748;8.102;2023-08-21T10:44:06;3.72;;;3.42;;
15573;SDS011;7888;46.748;8.102;2023-08-21T10:46:52;4.40;;;3.88;;
15573;SDS011;7888;46.748;8.102;2023-08-21T10:49:18;6.15;;;3.80;;
15573;SDS011;7888;46.748;8.102;2023-08-21T10:51:44;4.13;;;3.72;;
15573;SDS011;7888;46.748;8.102;2023-08-21T10:54:10;4.75;;;3.70;;
15573;SDS011;7888;46.748;8.102;2023-08-21T10:56:38;4.50;;;3.50;;
15573;SDS011;7888;46.748;8.102;2023-08-21T10:59:03;5.88;;;3.70;;
15573;SDS011;7888;46.748;8.102;2023-08-21T11:01:44;5.05;;;3.75;;
15573;SDS011;7888;46.748;8.102;2023-08-21T11:04:11;5.78;;;3.90;;
15573;SDS011;7888;46.748;8.102;2023-08-21T11:06:38;5.88;;;3.67;;
15573;SDS011;7888;46.748;8.102;2023-08-21T11:09:04;4.28;;;3.88;;
15573;SDS011;7888;46.748;8.102;2023-08-21T11:11:37;5.05;;;4.00;;
15573;SDS011;7888;46.748;8.102;2023-08-21T11:14:02;5.10;;;3.83;;
15573;SDS011;7888;46.748;8.102;2023-08-21T11:16:29;4.38;;;3.63;;
15573;SDS011;7888;46.748;8.102;2023-08-21T11:18:54;6.88;;;3.90;;
15573;SDS011;7888;46.748;8.102;2023-08-21T11:21:20;3.67;;;3.38;;
15573;SDS011;7888;46.748;8.102;2023-08-21T11:23:50;4.88;;;3.70;;
15573;SDS011;7888;46.748;8.102;2023-08-21T11:26:16;5.25;;;3.97;;
15573;SDS011;7888;46.748;8.102;2023-08-21T11:28:41;6.30;;;3.42;;
15573;SDS011;7888;46.748;8.102;2023-08-21T11:31:07;4.20;;;3.85;;
15573;SDS011;7888;46.748;8.102;2023-08-21T11:33:36;5.53;;;3.70;;
15573;SDS011;7888;46.748;8.102;2023-08-21T11:36:04;6.75;;;3.67;;
15573;SDS011;7888;46.748;8.102;2023-08-21T11:38:30;7.22;;;4.03;;
15573;SDS011;7888;46.748;8.102;2023-08-21T11:41:02;7.18;;;4.00;;
15573;SDS011;7888;46.748;8.102;2023-08-21T11:43:37;5.05;;;3.53;;
15573;SDS011;7888;46.748;8.102;2023-08-21T11:46:06;6.75;;;4.13;;
15573;SDS011;7888;46.748;8.102;2023-08-21T11:48:36;3.55;;;3.25;;
15573;SDS011;7888;46.748;8.102;2023-08-21T11:51:04;5.53;;;3.97;;
15573;SDS011;7888;46.748;8.102;2023-08-21T11:53:30;7.40;;;3.90;;
15573;SDS011;7888;46.748;8.102;2023-08-21T11:55:59;6.00;;;4.03;;
15573;SDS011;7888;46.748;8.102;2023-08-21T11:58:28;4.90;;;3.72;;
15573;SDS011;7888;46.748;8.102;2023-08-21T12:00:54;6.38;;;3.83;;
15573;SDS011;7888;46.748;8.102;2023-08-21T12:03:36;7.28;;;3.85;;
15573;SDS011;7888;46.748;8.102;2023-08-21T12:06:10;5.60;;;3.70;;
15573;SDS011;7888;46.748;8.102;2023-08-21T12:08:38;3.88;;;3.50;;
15573;SDS011;7888;46.748;8.102;2023-08-21T12:11:05;6.68;;;3.80;;
15573;SDS011;7888;46.748;8.102;2023-08-21T12:13:32;6.72;;;3.95;;
15573;SDS011;7888;46.748;8.102;2023-08-21T12:15:58;4.68;;;3.50;;
15573;SDS011;7888;46.748;8.102;2023-08-21T12:18:24;4.43;;;3.15;;
15573;SDS011;7888;46.748;8.102;2023-08-21T12:20:49;8.88;;;3.78;;
15573;SDS011;7888;46.748;8.102;2023-08-21T12:23:16;6.22;;;3.50;;
15573;SDS011;7888;46.748;8.102;2023-08-21T12:25:41;5.38;;;3.45;;
15573;SDS011;7888;46.748;8.102;2023-08-21T12:28:07;6.65;;;3.47;;
15573;SDS011;7888;46.748;8.102;2023-08-21T12:30:33;5.05;;;3.83;;
15573;SDS011;7888;46.748;8.102;2023-08-21T12:32:59;3.95;;;3.22;;
15573;SDS011;7888;46.748;8.102;2023-08-21T12:35:25;4.78;;;3.55;;
15573;SDS011;7888;46.748;8.102;2023-08-21T12:37:55;6.88;;;3.72;;
15573;SDS011;7888;46.748;8.102;2023-08-21T12:40:23;4.88;;;3.60;;
15573;SDS011;7888;46.748;8.102;2023-08-21T12:42:50;5.40;;;4.10;;
15573;SDS011;7888;46.748;8.102;2023-08-21T12:45:16;3.83;;;3.40;;
15573;SDS011;7888;46.748;8.102;2023-08-21T12:47:42;5.68;;;3.85;;
15573;SDS011;7888;46.748;8.102;2023-08-21T12:50:07;5.47;;;3.42;;
15573;SDS011;7888;46.748;8.102;2023-08-21T12:52:34;5.38;;;3.50;;
15573;SDS011;7888;46.748;8.102;2023-08-21T12:54:59;7.22;;;3.80;;
15573;SDS011;7888;46.748;8.102;2023-08-21T12:57:28;5.45;;;3.35;;
15573;SDS011;7888;46.748;8.102;2023-08-21T12:59:54;4.55;;;3.53;;
15573;SDS011;7888;46.748;8.102;2023-08-21T13:02:20;6.63;;;3.60;;
15573;SDS011;7888;46.748;8.102;2023-08-21T13:04:48;5.63;;;3.70;;
15573;SDS011;7888;46.748;8.102;2023-08-21T13:07:14;3.90;;;3.42;;
15573;SDS011;7888;46.748;8.102;2023-08-21T13:09:40;4.93;;;3.75;;
15573;SDS011;7888;46.748;8.102;2023-08-21T13:12:06;5.50;;;3.83;;
15573;SDS011;7888;46.748;8.102;2023-08-21T13:14:33;6.18;;;3.72;;
15573;SDS011;7888;46.748;8.102;2023-08-21T13:16:59;5.18;;;3.75;;
15573;SDS011;7888;46.748;8.102;2023-08-21T13:19:24;6.10;;;3.58;;
15573;SDS011;7888;46.748;8.102;2023-08-21T13:21:50;5.43;;;3.10;;
15573;SDS011;7888;46.748;8.102;2023-08-21T13:24:16;5.20;;;3.53;;
15573;SDS011;7888;46.748;8.102;2023-08-21T13:26:42;6.78;;;4.03;;
15573;SDS011;7888;46.748;8.102;2023-08-21T13:29:08;5.43;;;3.60;;
15573;SDS011;7888;46.748;8.102;2023-08-21T13:31:34;3.95;;;3.20;;
15573;SDS011;7888;46.748;8.102;2023-08-21T13:34:00;4.95;;;3.50;;
15573;SDS011;7888;46.748;8.102;2023-08-21T13:36:25;5.63;;;3.38;;
15573;SDS011;7888;46.748;8.102;2023-08-21T13:38:52;3.45;;;3.15;;
15573;SDS011;7888;46.748;8.102;2023-08-21T13:41:17;4.32;;;3.28;;
15573;SDS011;7888;46.748;8.102;2023-08-21T13:43:43;3.42;;;3.13;;
15573;SDS011;7888;46.748;8.102;2023-08-21T13:46:09;3.80;;;3.50;;
15573;SDS011;7888;46.748;8.102;2023-08-21T13:48:34;5.35;;;3.53;;
15573;SDS011;7888;46.748;8.102;2023-08-21T13:51:00;5.03;;;3.95;;
15573;SDS011;7888;46.748;8.102;2023-08-21T13:53:26;4.40;;;3.15;;
15573;SDS011;7888;46.748;8.102;2023-08-21T13:55:52;7.65;;;3.55;;
15573;SDS011;7888;46.748;8.102;2023-08-21T13:58:18;4.45;;;3.60;;
15573;SDS011;7888;46.748;8.102;2023-08-21T14:00:43;6.30;;;3.00;;
15573;SDS011;7888;46.748;8.102;2023-08-21T14:03:09;6.45;;;3.17;;
15573;SDS011;7888;46.748;8.102;2023-08-21T14:05:35;4.90;;;3.83;;
15573;SDS011;7888;46.748;8.102;2023-08-21T14:08:01;3.65;;;3.30;;
15573;SDS011;7888;46.748;8.102;2023-08-21T14:10:28;3.45;;;3.10;;
15573;SDS011;7888;46.748;8.102;2023-08-21T14:12:55;4.30;;;3.53;;
15573;SDS011;7888;46.748;8.102;2023-08-21T14:15:22;8.80;;;3.30;;
15573;SDS011;7888;46.748;8.102;2023-08-21T14:17:48;3.22;;;2.92;;
15573;SDS011;7888;46.748;8.102;2023-08-21T14:20:14;3.63;;;2.90;;
15573;SDS011;7888;46.748;8.102;2023-08-21T14:22:40;2.95;;;2.75;;
15573;SDS011;7888;46.748;8.102;2023-08-21T14:25:06;3.15;;;2.85;;
15573;SDS011;7888;46.748;8.102;2023-08-21T14:27:33;3.47;;;2.72;;
15573;SDS011;7888;46.748;8.102;2023-08-21T14:29:59;4.15;;;2.85;;
15573;SDS011;7888;46.748;8.102;2023-08-21T14:32:25;5.68;;;2.90;;
15573;SDS011;7888;46.748;8.102;2023-08-21T14:34:51;3.45;;;2.88;;
15573;SDS011;7888;46.748;8.102;2023-08-21T14:37:18;3.42;;;2.88;;
15573;SDS011;7888;46.748;8.102;2023-08-21T14:39:46;3.47;;;3.05;;
15573;SDS011;7888;46.748;8.102;2023-08-21T14:42:12;3.70;;;2.83;;
15573;SDS011;7888;46.748;8.102;2023-08-21T14:44:39;3.75;;;2.80;;
15573;SDS011;7888;46.748;8.102;2023-08-21T14:47:04;3.85;;;2.70;;
15573;SDS011;7888;46.748;8.102;2023-08-21T14:49:30;3.75;;;2.70;;
15573;SDS011;7888;46.748;8.102;2023-08-21T14:51:57;5.30;;;2.58;;
15573;SDS011;7888;46.748;8.102;2023-08-21T14:54:23;4.25;;;2.88;;
15573;SDS011;7888;46.748;8.102;2023-08-21T14:56:49;4.03;;;2.70;;
15573;SDS011;7888;46.748;8.102;2023-08-21T14:59:16;5.10;;;3.10;;
15573;SDS011;7888;46.748;8.102;2023-08-21T15:01:42;3.58;;;2.80;;
15573;SDS011;7888;46.748;8.102;2023-08-21T15:04:08;4.13;;;3.17;;
15573;SDS011;7888;46.748;8.102;2023-08-21T15:06:34;4.20;;;3.10;;
15573;SDS011;7888;46.748;8.102;2023-08-21T15:09:02;3.63;;;2.60;;